• Join FlightAware (Why Join?)
  • Login
  • US Flag 
06:08PM EST


 

Airport Tracker/Info


-or-


 

Live Flight TrackerFlight Track Log ✈ TRS265 ✈ 10-Apr-2014 ✈ KIND - KATL

Flight Track Log - Related Links

Times and Time Zones

All times are in EDT time to prevent confusion due to time zone crossing. See the TRS265 flight status page for this flight to view local times or setup timezone preferences in your user account.

Time Position Orientation Groundspeed Altitude Reporting Facility
EDT Latitude Longitude Course Direction KTS MPH feet Rate Location/Type
12:39PM 39.7000 -86.3000 218° Southwest 150 173 1,800  Level Indianapolis TRACON
12:40PM 39.6833 -86.3167 218° Southwest 158 182 2,400 2,040 Climbing Indianapolis TRACON
12:41PM 39.6333 -86.3167 180° South 210 242 4,500 1,980 Climbing Indianapolis TRACON
12:42PM 39.5667 -86.3000 169° South 258 297 6,400 2,280 Climbing Indianapolis TRACON
12:43PM 39.5000 -86.3000 180° South 275 316 9,400 2,040 Climbing Indianapolis TRACON
12:44PM 39.4119 -86.3003 180° South 274 315 11,100 1,620 Climbing Indianapolis Center
12:45PM 39.3000 -86.2939 177° South 329 379 13,100 1,980 Climbing Indianapolis Center
12:46PM 39.2019 -86.2900 178° South 347 399 15,300 1,980 Climbing Indianapolis Center
12:47PM 39.0986 -86.2836 177° South 364 419 17,200 1,920 Climbing Indianapolis Center
12:49PM 38.8636 -86.2611 176° South 413 475 21,400 1,980 Climbing Indianapolis Center
12:50PM 38.7425 -86.2483 175° South 426 490 23,400 1,800 Climbing Indianapolis Center
12:51PM 38.6203 -86.2353 175° South 432 497 25,200 1,620 Climbing Indianapolis Center
12:52PM 38.4958 -86.2386 181° South 439 505 26,800 1,500 Climbing Indianapolis Center
12:53PM 38.3689 -86.2544 186° South 446 513 28,300 1,440 Climbing Indianapolis Center
12:54PM 38.2419 -86.2711 186° South 448 516 29,800 1,500 Climbing Indianapolis Center
12:55PM 38.0878 -86.2922 186° South 454 522 31,500 1,500 Climbing Indianapolis Center
12:56PM 37.9617 -86.3097 186° South 454 522 33,000 720 Climbing Indianapolis Center
12:57PM 37.8386 -86.3239 185° South 447 514 33,000  Level Indianapolis Center
12:58PM 37.7064 -86.3422 186° South 446 513 33,000  Level Indianapolis Center
12:59PM 37.5814 -86.3592 186° South 446 513 33,000  Level Indianapolis Center
01:00PM 37.4564 -86.3756 186° South 446 513 33,000  Level Indianapolis Center
01:01PM 37.3314 -86.3917 186° South 446 513 33,000  Level Indianapolis Center
01:02PM 37.2067 -86.4072 186° South 446 513 33,000  Level Indianapolis Center
01:03PM 37.0886 -86.4422 193° South 434 499 33,000  Level Indianapolis Center
01:04PM 37.0114 -86.4728 198° South 435 501 33,000  Level Memphis Center
01:05PM 36.8914 -86.5042 192° South 435 501 33,000  Level Memphis Center
01:06PM 36.7689 -86.5303 190° South 436 502 33,000  Level Memphis Center
01:08PM 36.4928 -86.4997 175° South 458 527 33,000  Level Memphis Center
01:09PM 36.3642 -86.4775 172° South 458 527 33,000  Level Memphis Center
01:10PM 36.2358 -86.4531 171° South 458 527 33,000  Level Memphis Center
01:11PM 36.1125 -86.3900 158° South 471 542 33,000  Level Memphis Center
01:12PM 35.9906 -86.3247 157° South 472 543 33,000  Level Memphis Center
01:13PM 35.8689 -86.2594 156° South 472 543 33,000  Level Memphis Center
01:14PM 35.7481 -86.1931 156° South 472 543 33,000  Level Memphis Center
01:17PM 35.5014 -86.0603 156° South 471 542 33,000  Level Indianapolis Center
01:17PM 35.3794 -85.9975 157° South 471 542 33,000  Level Atlanta Center
01:18PM 35.2614 -85.9336 156° South 471 542 33,000  Level Atlanta Center
01:19PM 35.1433 -85.8700 156° South 471 542 33,000  Level Atlanta Center
01:20PM 35.0297 -85.7967 152° Southeast 471 542 33,000  Level Atlanta Center
01:21PM 34.9203 -85.7106 147° Southeast 466 536 33,000 -1,080 Level Atlanta Center
01:23PM 34.6992 -85.5394 148° Southeast 466 536 29,800 -1,980 Descending Atlanta Center
01:24PM 34.5917 -85.4517 146° Southeast 471 542 27,200 -2,580 Descending Atlanta Center
01:25PM 34.4883 -85.3744 148° Southeast 466 536 24,700 -2,460 Descending Atlanta Center
01:26PM 34.3869 -85.2947 147° Southeast 445 512 22,300 -2,400 Descending Atlanta Center
01:27PM 34.3039 -85.2308 148° Southeast 408 470 20,000 -2,400 Descending Atlanta Center
01:29PM 34.1197 -85.0650 151° Southeast 401 461 15,200 -1,740 Descending Atlanta Center
01:31PM 33.9772 -84.8831 133° Southeast 372 428 13,100 -1,080 Descending Atlanta Center
01:32PM 33.9089 -84.7972 134° Southeast 367 422 12,000 -600 Descending Atlanta Center
01:33PM 33.8406 -84.7142 135° Southeast 353 406 12,000  Level Atlanta Center
01:34PM 33.7719 -84.6336 136° Southeast 353 406 12,000 -60 Level Atlanta Center
01:35PM 33.7283 -84.5608 126° Southeast 303 349 11,900 -1,020 Descending Atlanta Center
01:37PM 33.7333 -84.4667 86° East 267 307 10,000 -1,860 Descending Atlanta TRACON
01:38PM 33.7333 -84.3667 90° East 247 284 7,900 -2,040 Descending Atlanta TRACON
01:39PM 33.7333 -84.3000 90° East 238 274 6,000 -1,860 Descending Atlanta TRACON
01:40PM 33.7000 -84.2500 129° Southeast 209 241 4,400 -1,680 Descending Atlanta TRACON
01:41PM 33.6667 -84.2667 203° Southwest 181 208 2,700 -1,020 Descending Atlanta TRACON
01:42PM 33.6500 -84.3333 244° Southwest 169 194 2,300 -600 Descending Atlanta TRACON
01:43PM 33.6333 -84.4167 244° Southwest  Level FlightAware Approximate
01:43PM 33.6500 -84.3833 270° West 131 151 1,500  Level Atlanta TRACON
01:47PM 33.6333 -84.4167 244° Southwest  Level FlightAware Approximate
01:54PM 33.6367 -84.4279 290° West  Level Estimated
01:55PM 33.6367 -84.4279 North  Level Estimated
01:56PM 33.6367 -84.4279 North  Level Estimated